sensor_id;sensor_type;location;lat;lon;timestamp;temperature;humidity
1956;DHT22;978;48.314;11.562;2023-09-08T00:01:19;23.70;78.40
1956;DHT22;978;48.314;11.562;2023-09-08T00:03:48;23.60;78.40
1956;DHT22;978;48.314;11.562;2023-09-08T00:06:15;23.60;78.40
1956;DHT22;978;48.314;11.562;2023-09-08T00:08:46;23.80;78.50
1956;DHT22;978;48.314;11.562;2023-09-08T00:11:13;23.70;78.50
1956;DHT22;978;48.314;11.562;2023-09-08T00:13:41;23.60;78.50
1956;DHT22;978;48.314;11.562;2023-09-08T00:16:09;23.60;78.50
1956;DHT22;978;48.314;11.562;2023-09-08T00:18:36;23.80;78.60
1956;DHT22;978;48.314;11.562;2023-09-08T00:21:04;23.60;78.50
1956;DHT22;978;48.314;11.562;2023-09-08T00:23:32;23.60;78.50
1956;DHT22;978;48.314;11.562;2023-09-08T00:26:00;23.70;78.60
1956;DHT22;978;48.314;11.562;2023-09-08T00:28:29;23.60;78.50
1956;DHT22;978;48.314;11.562;2023-09-08T00:30:56;23.70;78.60
1956;DHT22;978;48.314;11.562;2023-09-08T00:33:28;23.60;78.60
1956;DHT22;978;48.314;11.562;2023-09-08T00:35:55;23.70;79.30
1956;DHT22;978;48.314;11.562;2023-09-08T00:38:24;23.60;78.60
1956;DHT22;978;48.314;11.562;2023-09-08T00:40:51;23.70;78.70
1956;DHT22;978;48.314;11.562;2023-09-08T00:43:19;23.70;78.70
1956;DHT22;978;48.314;11.562;2023-09-08T00:45:48;23.70;78.70
1956;DHT22;978;48.314;11.562;2023-09-08T00:48:15;23.60;78.70
1956;DHT22;978;48.314;11.562;2023-09-08T00:50:45;23.60;78.70
1956;DHT22;978;48.314;11.562;2023-09-08T00:53:12;23.70;78.80
1956;DHT22;978;48.314;11.562;2023-09-08T00:55:41;23.70;78.70
1956;DHT22;978;48.314;11.562;2023-09-08T00:58:08;23.60;78.70
1956;DHT22;978;48.314;11.562;2023-09-08T01:00:35;23.70;78.80
1956;DHT22;978;48.314;11.562;2023-09-08T01:03:03;23.70;78.80
1956;DHT22;978;48.314;11.562;2023-09-08T01:05:30;23.60;78.80
1956;DHT22;978;48.314;11.562;2023-09-08T01:08:01;23.70;78.90
1956;DHT22;978;48.314;11.562;2023-09-08T01:10:29;23.60;78.80
1956;DHT22;978;48.314;11.562;2023-09-08T01:12:56;23.70;78.90
1956;DHT22;978;48.314;11.562;2023-09-08T01:15:24;23.70;78.90
1956;DHT22;978;48.314;11.562;2023-09-08T01:17:53;23.70;78.90
1956;DHT22;978;48.314;11.562;2023-09-08T01:20:24;23.60;78.90
1956;DHT22;978;48.314;11.562;2023-09-08T01:23:03;23.70;78.90
1956;DHT22;978;48.314;11.562;2023-09-08T01:25:40;23.60;78.80
1956;DHT22;978;48.314;11.562;2023-09-08T01:28:10;23.60;78.80
1956;DHT22;978;48.314;11.562;2023-09-08T01:30:38;23.70;78.90
1956;DHT22;978;48.314;11.562;2023-09-08T01:33:08;23.60;78.80
1956;DHT22;978;48.314;11.562;2023-09-08T01:35:35;23.60;78.80
1956;DHT22;978;48.314;11.562;2023-09-08T01:38:04;23.70;78.90
1956;DHT22;978;48.314;11.562;2023-09-08T01:40:31;23.60;78.90
1956;DHT22;978;48.314;11.562;2023-09-08T01:42:59;23.70;78.90
1956;DHT22;978;48.314;11.562;2023-09-08T01:45:27;23.70;78.90
1956;DHT22;978;48.314;11.562;2023-09-08T01:47:53;23.70;78.90
1956;DHT22;978;48.314;11.562;2023-09-08T01:50:21;23.60;78.80
1956;DHT22;978;48.314;11.562;2023-09-08T01:52:50;23.60;78.80
1956;DHT22;978;48.314;11.562;2023-09-08T01:55:17;23.60;78.90
1956;DHT22;978;48.314;11.562;2023-09-08T01:57:45;23.70;79.00
1956;DHT22;978;48.314;11.562;2023-09-08T02:00:14;23.60;78.90
1956;DHT22;978;48.314;11.562;2023-09-08T02:02:42;23.70;79.00
1956;DHT22;978;48.314;11.562;2023-09-08T02:05:08;23.70;79.00
1956;DHT22;978;48.314;11.562;2023-09-08T02:07:35;23.70;79.00
1956;DHT22;978;48.314;11.562;2023-09-08T02:10:04;23.60;78.90
1956;DHT22;978;48.314;11.562;2023-09-08T02:12:31;23.70;79.00
1956;DHT22;978;48.314;11.562;2023-09-08T02:14:58;23.70;79.00
1956;DHT22;978;48.314;11.562;2023-09-08T02:17:31;23.70;79.00
1956;DHT22;978;48.314;11.562;2023-09-08T02:19:58;23.70;79.00
1956;DHT22;978;48.314;11.562;2023-09-08T02:22:26;23.70;79.00
1956;DHT22;978;48.314;11.562;2023-09-08T02:24:55;23.60;79.00
1956;DHT22;978;48.314;11.562;2023-09-08T02:27:24;23.60;79.00
1956;DHT22;978;48.314;11.562;2023-09-08T02:29:51;23.70;79.10
1956;DHT22;978;48.314;11.562;2023-09-08T02:32:18;23.70;79.10
1956;DHT22;978;48.314;11.562;2023-09-08T02:34:51;24.70;79.70
1956;DHT22;978;48.314;11.562;2023-09-08T02:37:18;23.70;79.10
1956;DHT22;978;48.314;11.562;2023-09-08T02:39:46;23.60;79.00
1956;DHT22;978;48.314;11.562;2023-09-08T02:42:14;23.70;79.10
1956;DHT22;978;48.314;11.562;2023-09-08T02:44:43;23.60;79.00
1956;DHT22;978;48.314;11.562;2023-09-08T02:47:12;23.60;79.00
1956;DHT22;978;48.314;11.562;2023-09-08T02:49:38;23.70;79.10
1956;DHT22;978;48.314;11.562;2023-09-08T02:52:08;23.60;79.00
1956;DHT22;978;48.314;11.562;2023-09-08T02:54:35;23.70;79.20
1956;DHT22;978;48.314;11.562;2023-09-08T02:57:01;23.70;79.20
1956;DHT22;978;48.314;11.562;2023-09-08T02:59:30;23.70;79.20
1956;DHT22;978;48.314;11.562;2023-09-08T03:01:56;23.60;79.10
1956;DHT22;978;48.314;11.562;2023-09-08T03:04:25;23.80;79.30
1956;DHT22;978;48.314;11.562;2023-09-08T03:06:53;23.70;79.20
1956;DHT22;978;48.314;11.562;2023-09-08T03:09:21;23.60;79.10
1956;DHT22;978;48.314;11.562;2023-09-08T03:11:50;23.70;79.10
1956;DHT22;978;48.314;11.562;2023-09-08T03:14:19;23.60;79.10
1956;DHT22;978;48.314;11.562;2023-09-08T03:16:47;23.60;79.10
1956;DHT22;978;48.314;11.562;2023-09-08T03:19:14;23.70;79.20
1956;DHT22;978;48.314;11.562;2023-09-08T03:21:41;23.70;79.20
1956;DHT22;978;48.314;11.562;2023-09-08T03:24:09;23.70;79.20
1956;DHT22;978;48.314;11.562;2023-09-08T03:26:37;23.60;79.10
1956;DHT22;978;48.314;11.562;2023-09-08T03:29:07;23.70;79.20
1956;DHT22;978;48.314;11.562;2023-09-08T03:31:33;23.60;79.20
1956;DHT22;978;48.314;11.562;2023-09-08T03:34:00;23.80;79.30
1956;DHT22;978;48.314;11.562;2023-09-08T03:36:28;23.70;79.20
1956;DHT22;978;48.314;11.562;2023-09-08T03:38:56;23.60;79.10
1956;DHT22;978;48.314;11.562;2023-09-08T03:41:24;23.60;79.20
1956;DHT22;978;48.314;11.562;2023-09-08T03:43:54;23.70;79.20
1956;DHT22;978;48.314;11.562;2023-09-08T03:46:20;23.60;79.20
1956;DHT22;978;48.314;11.562;2023-09-08T03:48:49;23.60;79.20
1956;DHT22;978;48.314;11.562;2023-09-08T03:51:15;23.70;79.30
1956;DHT22;978;48.314;11.562;2023-09-08T03:53:42;23.70;79.30
1956;DHT22;978;48.314;11.562;2023-09-08T03:56:09;23.60;79.20
1956;DHT22;978;48.314;11.562;2023-09-08T03:58:35;23.70;79.30
1956;DHT22;978;48.314;11.562;2023-09-08T04:01:03;23.70;79.30
1956;DHT22;978;48.314;11.562;2023-09-08T04:03:33;23.60;79.20
1956;DHT22;978;48.314;11.562;2023-09-08T04:06:00;23.60;79.10
1956;DHT22;978;48.314;11.562;2023-09-08T04:08:27;23.70;79.20
1956;DHT22;978;48.314;11.562;2023-09-08T04:10:54;23.60;79.10
1956;DHT22;978;48.314;11.562;2023-09-08T04:13:20;23.80;79.30
1956;DHT22;978;48.314;11.562;2023-09-08T04:15:48;23.60;79.10
1956;DHT22;978;48.314;11.562;2023-09-08T04:18:16;23.70;79.20
1956;DHT22;978;48.314;11.562;2023-09-08T04:20:43;23.70;79.20
1956;DHT22;978;48.314;11.562;2023-09-08T04:23:11;23.60;79.10
1956;DHT22;978;48.314;11.562;2023-09-08T04:25:38;23.60;79.10
1956;DHT22;978;48.314;11.562;2023-09-08T04:28:05;23.70;79.20
1956;DHT22;978;48.314;11.562;2023-09-08T04:30:33;23.60;79.10
1956;DHT22;978;48.314;11.562;2023-09-08T04:33:00;23.60;79.10
1956;DHT22;978;48.314;11.562;2023-09-08T04:35:29;24.10;79.40
1956;DHT22;978;48.314;11.562;2023-09-08T04:37:56;23.70;79.20
1956;DHT22;978;48.314;11.562;2023-09-08T04:40:23;23.70;79.20
1956;DHT22;978;48.314;11.562;2023-09-08T04:42:50;23.70;79.20
1956;DHT22;978;48.314;11.562;2023-09-08T04:45:17;23.70;79.20
1956;DHT22;978;48.314;11.562;2023-09-08T04:47:44;23.70;79.30
1956;DHT22;978;48.314;11.562;2023-09-08T04:50:14;23.60;79.20
1956;DHT22;978;48.314;11.562;2023-09-08T04:52:42;23.70;79.30
1956;DHT22;978;48.314;11.562;2023-09-08T04:55:10;23.70;79.30
1956;DHT22;978;48.314;11.562;2023-09-08T04:57:39;23.60;79.20
1956;DHT22;978;48.314;11.562;2023-09-08T05:00:07;23.60;79.20
1956;DHT22;978;48.314;11.562;2023-09-08T05:02:35;23.60;79.10
1956;DHT22;978;48.314;11.562;2023-09-08T05:05:02;23.80;79.30
1956;DHT22;978;48.314;11.562;2023-09-08T05:07:30;23.70;79.20
1956;DHT22;978;48.314;11.562;2023-09-08T05:09:58;23.70;79.20
1956;DHT22;978;48.314;11.562;2023-09-08T05:12:25;23.60;79.10
1956;DHT22;978;48.314;11.562;2023-09-08T05:14:53;23.80;79.20
1956;DHT22;978;48.314;11.562;2023-09-08T05:17:26;23.60;79.00
1956;DHT22;978;48.314;11.562;2023-09-08T05:19:56;23.70;79.10
1956;DHT22;978;48.314;11.562;2023-09-08T05:22:23;23.60;79.00
1956;DHT22;978;48.314;11.562;2023-09-08T05:24:51;23.70;79.10
1956;DHT22;978;48.314;11.562;2023-09-08T05:27:19;23.60;79.00
1956;DHT22;978;48.314;11.562;2023-09-08T05:29:45;23.60;79.00
1956;DHT22;978;48.314;11.562;2023-09-08T05:32:12;24.20;79.30
1956;DHT22;978;48.314;11.562;2023-09-08T05:34:42;23.70;79.00
1956;DHT22;978;48.314;11.562;2023-09-08T05:37:09;23.60;79.00
1956;DHT22;978;48.314;11.562;2023-09-08T05:39:37;23.90;79.10
1956;DHT22;978;48.314;11.562;2023-09-08T05:42:04;23.60;78.90
1956;DHT22;978;48.314;11.562;2023-09-08T05:44:32;23.70;79.00
1956;DHT22;978;48.314;11.562;2023-09-08T05:47:00;23.60;78.90
1956;DHT22;978;48.314;11.562;2023-09-08T05:49:29;24.00;79.10
1956;DHT22;978;48.314;11.562;2023-09-08T05:51:57;23.70;79.00
1956;DHT22;978;48.314;11.562;2023-09-08T05:54:24;23.70;79.00
1956;DHT22;978;48.314;11.562;2023-09-08T05:56:50;23.70;79.00
1956;DHT22;978;48.314;11.562;2023-09-08T05:59:19;24.50;79.50
1956;DHT22;978;48.314;11.562;2023-09-08T06:01:47;23.50;78.90
1956;DHT22;978;48.314;11.562;2023-09-08T06:04:14;23.60;78.90
1956;DHT22;978;48.314;11.562;2023-09-08T06:06:42;23.70;79.00
1956;DHT22;978;48.314;11.562;2023-09-08T06:09:08;23.60;78.90
1956;DHT22;978;48.314;11.562;2023-09-08T06:11:38;23.70;79.00
1956;DHT22;978;48.314;11.562;2023-09-08T06:14:05;23.70;78.90
1956;DHT22;978;48.314;11.562;2023-09-08T06:16:32;23.60;78.80
1956;DHT22;978;48.314;11.562;2023-09-08T06:19:02;23.70;78.90
1956;DHT22;978;48.314;11.562;2023-09-08T06:21:29;23.70;78.90
1956;DHT22;978;48.314;11.562;2023-09-08T06:23:57;23.70;78.90
1956;DHT22;978;48.314;11.562;2023-09-08T06:26:25;23.70;78.80
1956;DHT22;978;48.314;11.562;2023-09-08T06:28:52;23.60;78.80
1956;DHT22;978;48.314;11.562;2023-09-08T06:31:19;23.70;78.80
1956;DHT22;978;48.314;11.562;2023-09-08T06:33:48;23.60;78.70
1956;DHT22;978;48.314;11.562;2023-09-08T06:36:20;23.70;78.80
1956;DHT22;978;48.314;11.562;2023-09-08T06:38:49;23.70;78.80
1956;DHT22;978;48.314;11.562;2023-09-08T06:41:15;23.70;79.50
1956;DHT22;978;48.314;11.562;2023-09-08T06:43:46;23.60;79.10
1956;DHT22;978;48.314;11.562;2023-09-08T06:46:12;23.70;79.00
1956;DHT22;978;48.314;11.562;2023-09-08T06:48:40;23.70;78.90
1956;DHT22;978;48.314;11.562;2023-09-08T06:51:07;23.70;78.70
1956;DHT22;978;48.314;11.562;2023-09-08T06:53:36;23.70;78.60
1956;DHT22;978;48.314;11.562;2023-09-08T06:56:05;23.60;78.50
1956;DHT22;978;48.314;11.562;2023-09-08T06:58:32;23.60;78.60
1956;DHT22;978;48.314;11.562;2023-09-08T07:01:00;23.60;78.70
1956;DHT22;978;48.314;11.562;2023-09-08T07:03:26;23.70;78.80
1956;DHT22;978;48.314;11.562;2023-09-08T07:05:53;23.70;78.80
1956;DHT22;978;48.314;11.562;2023-09-08T07:08:21;23.60;78.70
1956;DHT22;978;48.314;11.562;2023-09-08T07:10:52;23.60;78.70
1956;DHT22;978;48.314;11.562;2023-09-08T07:13:20;23.60;78.70
1956;DHT22;978;48.314;11.562;2023-09-08T07:15:49;24.50;79.20
1956;DHT22;978;48.314;11.562;2023-09-08T07:18:15;23.70;78.80
1956;DHT22;978;48.314;11.562;2023-09-08T07:20:47;23.60;78.70
1956;DHT22;978;48.314;11.562;2023-09-08T07:23:15;23.60;78.80
1956;DHT22;978;48.314;11.562;2023-09-08T07:25:52;23.70;78.80
1956;DHT22;978;48.314;11.562;2023-09-08T07:28:20;23.70;78.80
1956;DHT22;978;48.314;11.562;2023-09-08T07:30:47;23.60;78.80
1956;DHT22;978;48.314;11.562;2023-09-08T07:33:13;23.70;78.90
1956;DHT22;978;48.314;11.562;2023-09-08T07:35:42;23.70;79.00
1956;DHT22;978;48.314;11.562;2023-09-08T07:38:09;23.70;79.00
1956;DHT22;978;48.314;11.562;2023-09-08T07:40:36;23.70;79.00
1956;DHT22;978;48.314;11.562;2023-09-08T07:43:07;23.70;79.00
1956;DHT22;978;48.314;11.562;2023-09-08T07:45:34;24.20;79.30
1956;DHT22;978;48.314;11.562;2023-09-08T07:48:01;23.70;79.10
1956;DHT22;978;48.314;11.562;2023-09-08T07:50:28;23.60;79.00
1956;DHT22;978;48.314;11.562;2023-09-08T07:52:57;23.60;79.00
1956;DHT22;978;48.314;11.562;2023-09-08T07:55:27;23.60;79.50
1956;DHT22;978;48.314;11.562;2023-09-08T07:57:55;23.70;78.90
1956;DHT22;978;48.314;11.562;2023-09-08T08:00:25;23.70;78.90
1956;DHT22;978;48.314;11.562;2023-09-08T08:02:54;23.60;78.90
1956;DHT22;978;48.314;11.562;2023-09-08T08:05:22;23.60;78.90
1956;DHT22;978;48.314;11.562;2023-09-08T08:07:49;23.60;78.80
1956;DHT22;978;48.314;11.562;2023-09-08T08:10:16;23.70;78.90
1956;DHT22;978;48.314;11.562;2023-09-08T08:12:44;23.70;78.90
1956;DHT22;978;48.314;11.562;2023-09-08T08:15:11;23.70;78.90
1956;DHT22;978;48.314;11.562;2023-09-08T08:17:42;23.70;78.90
1956;DHT22;978;48.314;11.562;2023-09-08T08:20:11;23.60;78.90
1956;DHT22;978;48.314;11.562;2023-09-08T08:22:44;23.70;79.00
1956;DHT22;978;48.314;11.562;2023-09-08T08:25:11;23.70;79.00
1956;DHT22;978;48.314;11.562;2023-09-08T08:27:39;23.70;79.00
1956;DHT22;978;48.314;11.562;2023-09-08T08:30:07;23.70;79.00
1956;DHT22;978;48.314;11.562;2023-09-08T08:32:36;23.60;79.00
1956;DHT22;978;48.314;11.562;2023-09-08T08:35:05;23.60;79.00
1956;DHT22;978;48.314;11.562;2023-09-08T08:37:32;23.70;79.20
1956;DHT22;978;48.314;11.562;2023-09-08T08:40:00;23.70;79.20
1956;DHT22;978;48.314;11.562;2023-09-08T08:42:31;23.70;79.20
1956;DHT22;978;48.314;11.562;2023-09-08T08:44:58;24.60;79.70
1956;DHT22;978;48.314;11.562;2023-09-08T08:47:29;23.60;79.20
1956;DHT22;978;48.314;11.562;2023-09-08T08:49:57;23.60;79.20
1956;DHT22;978;48.314;11.562;2023-09-08T08:52:29;23.70;79.30
1956;DHT22;978;48.314;11.562;2023-09-08T08:54:56;23.70;79.30
1956;DHT22;978;48.314;11.562;2023-09-08T08:57:25;23.60;79.30
1956;DHT22;978;48.314;11.562;2023-09-08T08:59:53;23.70;79.40
1956;DHT22;978;48.314;11.562;2023-09-08T09:02:23;23.80;79.50
1956;DHT22;978;48.314;11.562;2023-09-08T09:04:54;23.70;79.50
1956;DHT22;978;48.314;11.562;2023-09-08T09:07:23;23.70;79.50
1956;DHT22;978;48.314;11.562;2023-09-08T09:09:52;23.70;79.70
1956;DHT22;978;48.314;11.562;2023-09-08T09:12:19;23.60;79.40
1956;DHT22;978;48.314;11.562;2023-09-08T09:14:52;23.70;79.50
1956;DHT22;978;48.314;11.562;2023-09-08T09:17:19;23.70;79.50
1956;DHT22;978;48.314;11.562;2023-09-08T09:19:50;23.70;79.50
1956;DHT22;978;48.314;11.562;2023-09-08T09:22:20;23.60;79.50
1956;DHT22;978;48.314;11.562;2023-09-08T09:24:48;23.70;79.60
1956;DHT22;978;48.314;11.562;2023-09-08T09:27:17;23.60;79.60
1956;DHT22;978;48.314;11.562;2023-09-08T09:29:46;23.60;79.60
1956;DHT22;978;48.314;11.562;2023-09-08T09:32:14;23.70;79.70
1956;DHT22;978;48.314;11.562;2023-09-08T09:34:48;23.70;79.70
1956;DHT22;978;48.314;11.562;2023-09-08T09:37:15;23.70;79.70
1956;DHT22;978;48.314;11.562;2023-09-08T09:39:48;23.70;79.70
1956;DHT22;978;48.314;11.562;2023-09-08T09:42:17;23.70;79.80
1956;DHT22;978;48.314;11.562;2023-09-08T09:44:47;23.60;79.70
1956;DHT22;978;48.314;11.562;2023-09-08T09:47:14;23.70;79.80
1956;DHT22;978;48.314;11.562;2023-09-08T09:49:44;23.70;79.80
1956;DHT22;978;48.314;11.562;2023-09-08T09:52:13;23.70;79.90
1956;DHT22;978;48.314;11.562;2023-09-08T09:54:41;23.70;79.90
1956;DHT22;978;48.314;11.562;2023-09-08T09:57:13;23.60;79.80
1956;DHT22;978;48.314;11.562;2023-09-08T09:59:43;23.70;80.00
1956;DHT22;978;48.314;11.562;2023-09-08T10:02:12;23.70;80.00
1956;DHT22;978;48.314;11.562;2023-09-08T10:04:40;23.70;80.00
1956;DHT22;978;48.314;11.562;2023-09-08T10:07:07;23.70;80.00
1956;DHT22;978;48.314;11.562;2023-09-08T10:09:35;23.70;80.10
1956;DHT22;978;48.314;11.562;2023-09-08T10:12:05;24.40;80.50
1956;DHT22;978;48.314;11.562;2023-09-08T10:14:42;23.70;80.10
1956;DHT22;978;48.314;11.562;2023-09-08T10:17:15;23.60;80.10
1956;DHT22;978;48.314;11.562;2023-09-08T10:19:44;23.30;80.00
1956;DHT22;978;48.314;11.562;2023-09-08T10:22:20;23.60;80.10
1956;DHT22;978;48.314;11.562;2023-09-08T10:24:54;23.70;80.20
1956;DHT22;978;48.314;11.562;2023-09-08T10:27:24;23.70;80.20
1956;DHT22;978;48.314;11.562;2023-09-08T10:29:52;23.60;80.20
1956;DHT22;978;48.314;11.562;2023-09-08T10:32:20;23.70;80.30
1956;DHT22;978;48.314;11.562;2023-09-08T10:34:53;23.70;80.30
1956;DHT22;978;48.314;11.562;2023-09-08T10:37:24;23.70;80.30
1956;DHT22;978;48.314;11.562;2023-09-08T10:39:53;23.60;80.30
1956;DHT22;978;48.314;11.562;2023-09-08T10:42:25;23.60;80.30
1956;DHT22;978;48.314;11.562;2023-09-08T10:44:59;23.60;80.30
1956;DHT22;978;48.314;11.562;2023-09-08T10:47:54;23.60;80.30
1956;DHT22;978;48.314;11.562;2023-09-08T10:50:28;23.70;80.40
1956;DHT22;978;48.314;11.562;2023-09-08T10:53:14;23.70;80.40
1956;DHT22;978;48.314;11.562;2023-09-08T10:55:42;23.70;80.50
1956;DHT22;978;48.314;11.562;2023-09-08T10:58:20;23.70;80.50
1956;DHT22;978;48.314;11.562;2023-09-08T11:00:51;23.70;80.50
1956;DHT22;978;48.314;11.562;2023-09-08T11:03:27;23.60;80.50
1956;DHT22;978;48.314;11.562;2023-09-08T11:05:56;23.70;80.60
1956;DHT22;978;48.314;11.562;2023-09-08T11:08:23;23.70;80.60
1956;DHT22;978;48.314;11.562;2023-09-08T11:10:55;23.70;80.60
1956;DHT22;978;48.314;11.562;2023-09-08T11:13:22;23.60;80.60
1956;DHT22;978;48.314;11.562;2023-09-08T11:15:52;23.70;80.60
1956;DHT22;978;48.314;11.562;2023-09-08T11:18:25;23.50;80.60
1956;DHT22;978;48.314;11.562;2023-09-08T11:20:54;23.90;80.80
1956;DHT22;978;48.314;11.562;2023-09-08T11:23:21;23.60;80.80
1956;DHT22;978;48.314;11.562;2023-09-08T11:25:49;24.10;81.00
1956;DHT22;978;48.314;11.562;2023-09-08T11:28:20;23.60;80.70
1956;DHT22;978;48.314;11.562;2023-09-08T11:30:49;23.60;80.70
1956;DHT22;978;48.314;11.562;2023-09-08T11:33:21;23.60;80.80
1956;DHT22;978;48.314;11.562;2023-09-08T11:35:52;23.90;80.90
1956;DHT22;978;48.314;11.562;2023-09-08T11:38:27;23.60;80.80
1956;DHT22;978;48.314;11.562;2023-09-08T11:40:58;23.70;80.90
1956;DHT22;978;48.314;11.562;2023-09-08T11:43:26;23.70;80.90
1956;DHT22;978;48.314;11.562;2023-09-08T11:45:54;23.70;80.90
1956;DHT22;978;48.314;11.562;2023-09-08T11:48:24;23.70;80.90
1956;DHT22;978;48.314;11.562;2023-09-08T11:50:53;23.70;81.00
1956;DHT22;978;48.314;11.562;2023-09-08T11:53:21;23.60;81.00
1956;DHT22;978;48.314;11.562;2023-09-08T11:55:48;23.70;81.00
1956;DHT22;978;48.314;11.562;2023-09-08T11:58:16;24.60;81.50
1956;DHT22;978;48.314;11.562;2023-09-08T12:00:45;23.70;81.10
1956;DHT22;978;48.314;11.562;2023-09-08T12:03:16;23.80;81.10
1956;DHT22;978;48.314;11.562;2023-09-08T12:05:51;23.70;81.10
1956;DHT22;978;48.314;11.562;2023-09-08T12:08:18;23.70;81.10
1956;DHT22;978;48.314;11.562;2023-09-08T12:10:45;23.60;81.10
1956;DHT22;978;48.314;11.562;2023-09-08T12:13:13;23.60;81.10
1956;DHT22;978;48.314;11.562;2023-09-08T12:15:47;23.70;81.20
1956;DHT22;978;48.314;11.562;2023-09-08T12:18:16;23.70;81.20
1956;DHT22;978;48.314;11.562;2023-09-08T12:20:44;23.70;81.20
1956;DHT22;978;48.314;11.562;2023-09-08T12:23:18;23.70;81.30
1956;DHT22;978;48.314;11.562;2023-09-08T12:25:45;23.70;81.30
1956;DHT22;978;48.314;11.562;2023-09-08T12:28:18;23.70;81.30
1956;DHT22;978;48.314;11.562;2023-09-08T12:30:45;23.70;81.30
1956;DHT22;978;48.314;11.562;2023-09-08T12:33:15;23.60;81.30
1956;DHT22;978;48.314;11.562;2023-09-08T12:35:47;23.60;81.30
1956;DHT22;978;48.314;11.562;2023-09-08T12:38:14;23.60;81.30
1956;DHT22;978;48.314;11.562;2023-09-08T12:40:41;23.60;81.30
1956;DHT22;978;48.314;11.562;2023-09-08T12:43:09;23.70;81.40
1956;DHT22;978;48.314;11.562;2023-09-08T12:45:37;23.70;81.40
1956;DHT22;978;48.314;11.562;2023-09-08T12:48:04;23.70;81.50
1956;DHT22;978;48.314;11.562;2023-09-08T12:50:33;23.60;81.30
1956;DHT22;978;48.314;11.562;2023-09-08T12:53:01;23.70;81.40
1956;DHT22;978;48.314;11.562;2023-09-08T12:55:29;23.70;81.40
1956;DHT22;978;48.314;11.562;2023-09-08T12:57:57;23.60;81.40
1956;DHT22;978;48.314;11.562;2023-09-08T13:00:24;23.80;81.50
1956;DHT22;978;48.314;11.562;2023-09-08T13:02:53;23.70;81.40
1956;DHT22;978;48.314;11.562;2023-09-08T13:05:20;23.80;81.50
1956;DHT22;978;48.314;11.562;2023-09-08T13:07:47;23.70;81.40
1956;DHT22;978;48.314;11.562;2023-09-08T13:10:20;23.70;81.50
1956;DHT22;978;48.314;11.562;2023-09-08T13:12:47;23.60;81.30
1956;DHT22;978;48.314;11.562;2023-09-08T13:15:16;23.60;81.40
1956;DHT22;978;48.314;11.562;2023-09-08T13:17:42;23.70;81.40
1956;DHT22;978;48.314;11.562;2023-09-08T13:20:11;23.70;81.40
1956;DHT22;978;48.314;11.562;2023-09-08T13:22:41;23.60;81.40
1956;DHT22;978;48.314;11.562;2023-09-08T13:25:08;23.70;81.40
1956;DHT22;978;48.314;11.562;2023-09-08T13:27:40;23.70;81.50
1956;DHT22;978;48.314;11.562;2023-09-08T13:30:08;23.60;81.40
1956;DHT22;978;48.314;11.562;2023-09-08T13:32:39;23.60;81.50
1956;DHT22;978;48.314;11.562;2023-09-08T13:35:07;23.60;81.40
1956;DHT22;978;48.314;11.562;2023-09-08T13:37:34;23.60;81.50
1956;DHT22;978;48.314;11.562;2023-09-08T13:40:03;23.60;81.50
1956;DHT22;978;48.314;11.562;2023-09-08T13:42:30;23.60;81.50
1956;DHT22;978;48.314;11.562;2023-09-08T13:45:01;23.60;81.50
1956;DHT22;978;48.314;11.562;2023-09-08T13:47:28;23.60;81.50
1956;DHT22;978;48.314;11.562;2023-09-08T13:49:59;23.60;81.50
1956;DHT22;978;48.314;11.562;2023-09-08T13:52:25;23.70;81.60
1956;DHT22;978;48.314;11.562;2023-09-08T13:54:53;23.70;81.60
1956;DHT22;978;48.314;11.562;2023-09-08T13:57:20;23.70;81.60
1956;DHT22;978;48.314;11.562;2023-09-08T13:59:47;23.60;81.50
1956;DHT22;978;48.314;11.562;2023-09-08T14:02:16;23.60;82.10
1956;DHT22;978;48.314;11.562;2023-09-08T14:04:43;23.60;81.50
1956;DHT22;978;48.314;11.562;2023-09-08T14:07:09;23.60;81.50
1956;DHT22;978;48.314;11.562;2023-09-08T14:09:37;23.60;81.50
1956;DHT22;978;48.314;11.562;2023-09-08T14:12:05;24.00;81.80
1956;DHT22;978;48.314;11.562;2023-09-08T14:14:33;23.60;81.60
1956;DHT22;978;48.314;11.562;2023-09-08T14:17:01;23.70;81.70
1956;DHT22;978;48.314;11.562;2023-09-08T14:19:29;23.60;81.60
1956;DHT22;978;48.314;11.562;2023-09-08T14:21:59;23.60;81.60
1956;DHT22;978;48.314;11.562;2023-09-08T14:24:26;23.60;81.70
1956;DHT22;978;48.314;11.562;2023-09-08T14:26:54;23.60;81.70
1956;DHT22;978;48.314;11.562;2023-09-08T14:29:21;23.60;81.70
1956;DHT22;978;48.314;11.562;2023-09-08T14:31:48;23.60;81.70
1956;DHT22;978;48.314;11.562;2023-09-08T14:34:15;23.70;81.80
1956;DHT22;978;48.314;11.562;2023-09-08T14:36:44;23.60;81.70
1956;DHT22;978;48.314;11.562;2023-09-08T14:39:10;23.60;81.80
1956;DHT22;978;48.314;11.562;2023-09-08T14:41:39;23.60;81.80
1956;DHT22;978;48.314;11.562;2023-09-08T14:44:05;23.70;81.90
1956;DHT22;978;48.314;11.562;2023-09-08T14:46:34;23.60;81.80
1956;DHT22;978;48.314;11.562;2023-09-08T14:49:02;23.60;81.90
1956;DHT22;978;48.314;11.562;2023-09-08T14:51:28;23.70;81.90
1956;DHT22;978;48.314;11.562;2023-09-08T14:53:58;23.60;81.90
1956;DHT22;978;48.314;11.562;2023-09-08T14:56:24;23.70;82.00
1956;DHT22;978;48.314;11.562;2023-09-08T14:58:51;23.70;82.00
1956;DHT22;978;48.314;11.562;2023-09-08T15:01:19;23.70;82.00
1956;DHT22;978;48.314;11.562;2023-09-08T15:03:46;23.60;81.90
1956;DHT22;978;48.314;11.562;2023-09-08T15:06:14;23.60;81.90
1956;DHT22;978;48.314;11.562;2023-09-08T15:08:43;23.60;82.00
1956;DHT22;978;48.314;11.562;2023-09-08T15:11:15;23.60;82.00
1956;DHT22;978;48.314;11.562;2023-09-08T15:13:43;23.70;82.00
1956;DHT22;978;48.314;11.562;2023-09-08T15:16:10;23.80;82.10
1956;DHT22;978;48.314;11.562;2023-09-08T15:18:38;23.70;82.00
1956;DHT22;978;48.314;11.562;2023-09-08T15:21:05;23.70;82.10
1956;DHT22;978;48.314;11.562;2023-09-08T15:23:31;23.60;82.00
1956;DHT22;978;48.314;11.562;2023-09-08T15:26:02;23.70;82.10
1956;DHT22;978;48.314;11.562;2023-09-08T15:28:30;23.70;82.10
1956;DHT22;978;48.314;11.562;2023-09-08T15:30:59;23.60;82.00
1956;DHT22;978;48.314;11.562;2023-09-08T15:33:26;23.70;82.10
1956;DHT22;978;48.314;11.562;2023-09-08T15:35:54;23.70;82.10
1956;DHT22;978;48.314;11.562;2023-09-08T15:38:23;23.60;82.10
1956;DHT22;978;48.314;11.562;2023-09-08T15:41:16;23.60;82.40
1956;DHT22;978;48.314;11.562;2023-09-08T15:43:47;23.60;82.30
1956;DHT22;978;48.314;11.562;2023-09-08T15:46:17;23.70;82.20
1956;DHT22;978;48.314;11.562;2023-09-08T15:48:44;23.70;82.20
1956;DHT22;978;48.314;11.562;2023-09-08T15:51:10;23.60;82.20
1956;DHT22;978;48.314;11.562;2023-09-08T15:53:38;23.70;82.20
1956;DHT22;978;48.314;11.562;2023-09-08T15:56:06;23.70;82.20
1956;DHT22;978;48.314;11.562;2023-09-08T15:58:33;23.70;82.30
1956;DHT22;978;48.314;11.562;2023-09-08T16:01:04;23.70;82.30
1956;DHT22;978;48.314;11.562;2023-09-08T16:03:31;23.70;82.30
1956;DHT22;978;48.314;11.562;2023-09-08T16:05:59;23.60;82.20
1956;DHT22;978;48.314;11.562;2023-09-08T16:08:28;23.70;82.30
1956;DHT22;978;48.314;11.562;2023-09-08T16:10:56;23.70;82.30